createdAt,value
2019-02-27T00:03:20.225Z,2.80
2019-02-27T00:08:06.138Z,2.50
2019-02-27T00:12:52.518Z,2.50
2019-02-27T00:17:38.539Z,2.20
2019-02-27T00:22:25.234Z,2.10
2019-02-27T00:27:14.591Z,1.90
2019-02-27T00:31:58.521Z,2.20
2019-02-27T00:36:45.651Z,2.60
2019-02-27T00:41:31.532Z,2.60
2019-02-27T00:46:17.301Z,2.30
2019-02-27T00:51:03.198Z,1.90
2019-02-27T00:55:48.894Z,1.40
2019-02-27T01:00:38.962Z,1.40
2019-02-27T01:05:21.976Z,1.60
2019-02-27T01:10:12.058Z,2.00
2019-02-27T01:14:56.257Z,1.90
2019-02-27T01:19:42.945Z,1.70
2019-02-27T01:24:29.189Z,1.30
2019-02-27T01:29:15.716Z,1.40
2019-02-27T01:34:02.432Z,1.50
2019-02-27T01:38:48.154Z,1.20
2019-02-27T01:43:33.987Z,1.50
2019-02-27T01:48:19.807Z,1.50
2019-02-27T01:53:07.338Z,1.50
2019-02-27T01:57:53.893Z,1.20
2019-02-27T02:02:40.505Z,1.00
2019-02-27T02:07:26.393Z,0.80
2019-02-27T02:12:21.424Z,0.80
2019-02-27T02:18:01.796Z,0.80
2019-02-27T02:23:21.328Z,0.80
2019-02-27T02:28:52.139Z,0.50
2019-02-27T02:33:53.865Z,0.50
2019-02-27T02:39:32.309Z,0.50
2019-02-27T02:44:27.413Z,0.70
2019-02-27T02:49:43.575Z,0.50
2019-02-27T02:54:48.861Z,0.50
2019-02-27T03:00:15.673Z,0.40
2019-02-27T03:05:59.782Z,-0.10
2019-02-27T03:11:06.899Z,-0.10
2019-02-27T03:16:07.142Z,-0.20
2019-02-27T03:21:27.499Z,0.00
2019-02-27T03:26:53.728Z,0.20
2019-02-27T03:31:59.844Z,0.10
2019-02-27T03:37:13.587Z,0.30
2019-02-27T03:42:39.414Z,0.50
2019-02-27T03:47:33.648Z,0.20
2019-02-27T03:53:03.203Z,0.10
2019-02-27T03:58:09.709Z,-0.10
2019-02-27T04:04:00.690Z,-0.30
2019-02-27T04:09:00.066Z,-0.30
2019-02-27T04:13:45.785Z,-0.10
2019-02-27T04:18:29.572Z,0.00
2019-02-27T04:23:15.314Z,0.10
2019-02-27T04:28:01.047Z,0.20
2019-02-27T04:32:48.795Z,0.10
2019-02-27T04:37:34.097Z,-0.10
2019-02-27T04:42:19.902Z,-0.10
2019-02-27T04:47:05.776Z,-0.40
2019-02-27T04:51:51.492Z,-0.60
2019-02-27T04:56:37.327Z,-0.70
2019-02-27T05:01:22.996Z,-0.70
2019-02-27T05:06:08.736Z,-0.90
2019-02-27T05:10:54.456Z,-0.70
2019-02-27T05:15:40.178Z,-0.50
2019-02-27T05:20:25.917Z,-0.60
2019-02-27T05:25:12.101Z,-0.30
2019-02-27T05:30:00.059Z,-0.10
2019-02-27T05:34:49.381Z,-0.10
2019-02-27T05:39:33.833Z,-0.40
2019-02-27T05:44:22.160Z,-0.50
2019-02-27T05:49:07.163Z,-0.50
2019-02-27T05:53:52.994Z,-0.50
2019-02-27T05:58:38.793Z,-0.60
2019-02-27T06:03:24.629Z,-0.80
2019-02-27T06:08:10.540Z,-0.80
2019-02-27T06:12:56.337Z,-0.50
2019-02-27T06:17:43.542Z,-0.60
2019-02-27T06:22:30.422Z,-0.60
2019-02-27T06:27:16.977Z,-0.70
2019-02-27T06:32:03.038Z,-0.50
2019-02-27T06:36:48.733Z,-0.20
2019-02-27T06:41:34.520Z,-0.10
2019-02-27T06:46:20.770Z,-0.10
2019-02-27T06:51:06.681Z,0.00
2019-02-27T06:55:52.391Z,0.30
2019-02-27T07:00:38.185Z,0.50
2019-02-27T07:05:24.029Z,0.50
2019-02-27T07:10:10.682Z,0.40
2019-02-27T07:14:56.377Z,0.30
2019-02-27T07:19:42.069Z,0.30
2019-02-27T07:24:33.829Z,0.40
2019-02-27T07:29:21.942Z,0.40
2019-02-27T07:34:07.257Z,0.50
2019-02-27T07:38:54.345Z,0.60
2019-02-27T07:43:40.336Z,1.20
2019-02-27T07:48:26.072Z,2.20
2019-02-27T07:53:11.773Z,3.10
2019-02-27T07:57:58.756Z,3.70
2019-02-27T08:02:45.242Z,4.70
2019-02-27T08:07:30.926Z,5.30
2019-02-27T08:12:17.558Z,5.80
2019-02-27T08:17:16.773Z,6.30
2019-02-27T08:21:51.598Z,7.10
2019-02-27T08:26:37.378Z,7.80
2019-02-27T08:31:27.968Z,8.10
2019-02-27T08:36:10.452Z,8.90
2019-02-27T08:40:58.261Z,9.80
2019-02-27T08:45:43.616Z,10.20
2019-02-27T08:50:31.676Z,11.00
2019-02-27T08:55:21.093Z,11.10
2019-02-27T09:00:05.157Z,11.50
2019-02-27T09:04:50.878Z,11.80
2019-02-27T09:09:36.545Z,13.10
2019-02-27T09:14:22.301Z,13.50
2019-02-27T09:19:09.450Z,13.80
2019-02-27T09:23:55.436Z,13.20
2019-02-27T09:28:44.326Z,13.80
2019-02-27T09:33:29.010Z,14.70
2019-02-27T09:38:14.813Z,14.90
2019-02-27T09:43:00.654Z,15.40
2019-02-27T09:47:46.405Z,16.00
2019-02-27T09:52:32.264Z,16.90
2019-02-27T09:57:17.980Z,18.10
2019-02-27T10:02:06.260Z,17.60
2019-02-27T10:06:51.723Z,17.40
2019-02-27T10:11:37.498Z,17.90
2019-02-27T10:16:24.441Z,18.50
2019-02-27T10:21:12.031Z,19.00
2019-02-27T10:25:57.918Z,19.40
2019-02-27T10:30:44.217Z,19.60
2019-02-27T10:35:30.365Z,20.30
2019-02-27T10:40:18.276Z,20.80
2019-02-27T10:45:04.275Z,20.30
2019-02-27T10:49:50.287Z,20.70
2019-02-27T10:54:37.053Z,20.70
2019-02-27T10:59:23.799Z,20.60
2019-02-27T11:04:09.501Z,22.10
2019-02-27T11:08:55.381Z,22.10
2019-02-27T11:13:41.276Z,23.10
2019-02-27T11:18:27.148Z,24.70
2019-02-27T11:23:12.942Z,24.90
2019-02-27T11:27:58.897Z,24.70
2019-02-27T11:32:44.843Z,24.40
2019-02-27T11:37:30.867Z,26.00
2019-02-27T11:42:16.571Z,26.10
2019-02-27T11:47:02.408Z,25.20
2019-02-27T11:51:50.600Z,25.70
2019-02-27T11:56:35.728Z,26.40
2019-02-27T12:01:40.446Z,26.40
2019-02-27T12:06:26.263Z,26.70
2019-02-27T12:11:13.205Z,24.70
2019-02-27T12:15:59.478Z,26.70
2019-02-27T12:20:45.500Z,28.20
2019-02-27T12:25:32.421Z,29.00
2019-02-27T12:30:19.684Z,28.20
2019-02-27T12:35:08.291Z,29.60
2019-02-27T12:39:53.746Z,29.30
2019-02-27T12:44:39.694Z,30.10
2019-02-27T12:49:25.589Z,30.40
2019-02-27T12:54:11.610Z,30.20
2019-02-27T12:58:58.707Z,30.20
2019-02-27T13:03:45.333Z,30.70
2019-02-27T13:08:31.397Z,30.60
2019-02-27T13:13:17.346Z,30.40
2019-02-27T13:18:03.211Z,31.90
2019-02-27T13:22:49.242Z,31.20
2019-02-27T13:27:35.266Z,32.30
2019-02-27T13:32:21.135Z,33.50
2019-02-27T13:37:10.055Z,33.20
2019-02-27T13:41:55.046Z,33.70
2019-02-27T13:46:40.888Z,33.30
2019-02-27T13:51:26.835Z,33.80
2019-02-27T13:56:13.078Z,34.40
2019-02-27T14:00:58.954Z,34.70
2019-02-27T14:05:44.957Z,34.20
2019-02-27T14:10:31.106Z,34.20
2019-02-27T14:15:17.767Z,34.20
2019-02-27T14:20:05.278Z,33.60
2019-02-27T14:24:51.879Z,32.80
2019-02-27T14:29:41.340Z,34.90
2019-02-27T14:34:27.937Z,35.10
2019-02-27T14:39:15.940Z,35.00
2019-02-27T14:44:01.969Z,35.20
2019-02-27T14:48:47.806Z,33.40
2019-02-27T14:53:34.129Z,32.10
2019-02-27T14:58:24.272Z,34.10
2019-02-27T15:03:10.469Z,34.10
2019-02-27T15:07:56.713Z,34.00
2019-02-27T15:12:42.690Z,34.60
2019-02-27T15:17:28.457Z,32.60
2019-02-27T15:22:14.623Z,33.30
2019-02-27T15:27:00.578Z,32.90
2019-02-27T15:31:46.765Z,33.70
2019-02-27T15:36:32.807Z,33.60
2019-02-27T15:41:18.900Z,33.00
2019-02-27T15:46:05.001Z,33.60
2019-02-27T15:50:51.178Z,33.20
2019-02-27T15:55:37.908Z,32.80
2019-02-27T16:00:24.440Z,32.20
2019-02-27T16:05:11.588Z,31.70
2019-02-27T16:09:57.605Z,30.60
2019-02-27T16:14:43.711Z,29.80
2019-02-27T16:19:29.869Z,29.70
2019-02-27T16:24:15.745Z,29.00
2019-02-27T16:29:01.730Z,27.20
2019-02-27T16:33:48.017Z,25.90
2019-02-27T16:38:33.952Z,23.10
2019-02-27T16:43:19.708Z,20.40
2019-02-27T16:48:07.761Z,17.80
2019-02-27T16:52:54.164Z,16.10
2019-02-27T16:57:39.925Z,15.00
2019-02-27T17:02:26.087Z,13.90
2019-02-27T17:07:12.399Z,13.00
2019-02-27T17:11:58.455Z,12.40
2019-02-27T17:16:45.478Z,12.10
2019-02-27T17:21:31.383Z,11.90
2019-02-27T17:26:17.277Z,11.50
2019-02-27T17:31:03.186Z,11.40
2019-02-27T17:35:49.268Z,11.30
2019-02-27T17:40:37.578Z,11.00
2019-02-27T17:45:25.018Z,10.80
2019-02-27T17:50:11.252Z,10.50
2019-02-27T17:54:57.223Z,10.30
2019-02-27T17:59:43.132Z,10.10
2019-02-27T18:04:29.193Z,10.00
2019-02-27T18:09:15.021Z,9.80
2019-02-27T18:14:00.994Z,9.50
2019-02-27T18:18:46.911Z,9.20
2019-02-27T18:23:32.937Z,9.00
2019-02-27T18:28:19.000Z,9.00
2019-02-27T18:33:05.105Z,8.70
2019-02-27T18:37:54.190Z,8.40
2019-02-27T18:42:39.145Z,8.30
2019-02-27T18:47:25.475Z,8.20
2019-02-27T18:52:11.415Z,8.10
2019-02-27T18:56:57.605Z,7.90
2019-02-27T19:01:45.201Z,8.10
2019-02-27T19:06:31.456Z,8.40
2019-02-27T19:11:17.511Z,8.70
2019-02-27T19:16:03.463Z,8.80
2019-02-27T19:20:49.217Z,8.80
2019-02-27T19:25:35.517Z,8.90
2019-02-27T19:30:22.049Z,9.00
2019-02-27T19:35:08.525Z,9.10
2019-02-27T19:39:56.344Z,8.60
2019-02-27T19:44:42.355Z,8.20
2019-02-27T19:49:28.330Z,7.70
2019-02-27T19:54:18.449Z,7.50
2019-02-27T19:59:03.163Z,7.30
2019-02-27T20:03:49.101Z,7.20
2019-02-27T20:08:35.580Z,6.90
2019-02-27T20:13:21.815Z,6.60
2019-02-27T20:18:09.720Z,6.30
2019-02-27T20:22:55.786Z,6.20
2019-02-27T20:27:42.103Z,5.90
2019-02-27T20:32:28.558Z,5.60
2019-02-27T20:37:15.487Z,5.70
2019-02-27T20:42:01.688Z,5.90
2019-02-27T20:46:49.320Z,5.80
2019-02-27T20:51:39.770Z,5.60
2019-02-27T20:56:22.914Z,5.30
2019-02-27T21:01:10.800Z,5.20
2019-02-27T21:05:56.696Z,5.20
2019-02-27T21:10:43.150Z,5.00
2019-02-27T21:15:32.637Z,4.90
2019-02-27T21:20:17.657Z,4.80
2019-02-27T21:25:03.657Z,4.80
2019-02-27T21:29:49.597Z,4.70
2019-02-27T21:34:35.856Z,4.70
2019-02-27T21:39:22.549Z,4.70
2019-02-27T21:44:09.839Z,4.60
2019-02-27T21:48:58.601Z,4.60
2019-02-27T21:53:43.220Z,4.70
2019-02-27T21:58:31.888Z,4.60
2019-02-27T22:03:16.654Z,4.50
2019-02-27T22:08:05.481Z,4.70
2019-02-27T22:12:50.208Z,4.50
2019-02-27T22:17:36.649Z,4.20
2019-02-27T22:22:24.652Z,4.10
2019-02-27T22:27:12.783Z,4.10
2019-02-27T22:31:57.994Z,4.20
2019-02-27T22:36:45.039Z,4.10
2019-02-27T22:41:30.961Z,4.00
2019-02-27T22:46:17.155Z,3.90
2019-02-27T22:51:02.947Z,4.00
2019-02-27T22:55:48.685Z,3.90
2019-02-27T23:01:11.165Z,4.00
2019-02-27T23:05:57.073Z,3.90
2019-02-27T23:10:43.019Z,3.70
2019-02-27T23:15:28.784Z,3.80
2019-02-27T23:20:17.589Z,3.50
2019-02-27T23:25:01.878Z,3.30
2019-02-27T23:29:47.583Z,3.60
2019-02-27T23:34:33.402Z,3.60
2019-02-27T23:39:19.392Z,3.40
2019-02-27T23:44:05.493Z,3.40
2019-02-27T23:48:51.971Z,3.30
2019-02-27T23:53:37.736Z,3.10
2019-02-27T23:58:23.633Z,3.00
